BOX565 ZSPD-EDDP
Flight info
| Callsign | BOX565 |
|---|---|
| Flight time | N/A |
| Altitude | 25600 |
| Route | PIK81D PIKAS G330 PIMOL A593 DALIM/K0883S0840 W157 BEKDO/K0867S0810 W157 VYK G212 SOTMU/K0880S0840 B339 ASILA A575 UPREK W28 LAGEB W66 NUKTI B215 KABDO W119 OGEDI/K0906S0920 W119 GOBOK A343 RULAD/K0898F300 M610 ARBOL Z621 GENDI N147 OTBOR/N0481F300 A480 TIMGA B476 UGLEP/N0481F320 B476 METKA L88 NIJAT N644 ADEKI DCT BADIR DCT LAGAS DCT NOLGA UG261 TBN UM11 CRM UL746 ODERO DCT DINRO DCT RIVOS DCT URELA DCT DOKUD DCT KARIL DCT TAKOS DCT OMIFU DCT ODLIV DCT BEFRE DCT IVQOQ T951 YAWOY YAWOY1R |
| Aircraft | B77L/H-SDE1E2E3FGHIJ2J3J4J5M1RWXY/LB1D1 |
Departure
| Time | N/A |
|---|---|
| Airport | Shanghai Pudong International Airport (ZSPD) |
Arrival
| Time | 2026-05-04 23:19 |
|---|---|
| Airport | Leipzig/Halle Airport (EDDP) |
| Time | Latitude | Longitude | Altitude | Speed | Heading |
|---|---|---|---|---|---|
| 2026-05-04 21:21 | 43.27417 | 29.38649 | 32060 ft | 468 kts | 318° |
| 2026-05-04 21:21 | 43.29738 | 29.35527 | 32065 ft | 468 kts | 317° |
| 2026-05-04 21:21 | 43.34388 | 29.29262 | 32065 ft | 468 kts | 317° |
| 2026-05-04 21:22 | 43.39031 | 29.22992 | 32065 ft | 468 kts | 317° |
| 2026-05-04 21:22 | 43.43646 | 29.16747 | 32066 ft | 468 kts | 317° |
| 2026-05-04 21:23 | 43.48287 | 29.10451 | 32065 ft | 468 kts | 317° |
| 2026-05-04 21:23 | 43.52924 | 29.04147 | 32065 ft | 468 kts | 317° |
| 2026-05-04 21:24 | 43.57556 | 28.97835 | 32065 ft | 468 kts | 317° |
| 2026-05-04 21:24 | 43.62146 | 28.91564 | 32064 ft | 468 kts | 317° |
| 2026-05-04 21:25 | 43.66766 | 28.85239 | 32064 ft | 468 kts | 317° |
| 2026-05-04 21:25 | 43.71447 | 28.79006 | 32064 ft | 467 kts | 320° |
| 2026-05-04 21:26 | 43.76393 | 28.73147 | 32195 ft | 473 kts | 321° |
| 2026-05-04 21:26 | 43.78907 | 28.70212 | 32695 ft | 472 kts | 321° |
| 2026-05-04 21:26 | 43.81368 | 28.67329 | 33329 ft | 468 kts | 321° |
| 2026-05-04 21:27 | 43.83840 | 28.64419 | 33906 ft | 465 kts | 321° |
| 2026-05-04 21:27 | 43.86313 | 28.61495 | 34066 ft | 470 kts | 321° |
| 2026-05-04 21:27 | 43.91271 | 28.55599 | 34056 ft | 467 kts | 321° |
| 2026-05-04 21:28 | 43.96176 | 28.49747 | 34052 ft | 464 kts | 321° |
| 2026-05-04 21:28 | 44.01065 | 28.43901 | 34057 ft | 464 kts | 320° |
| 2026-05-04 21:29 | 44.05922 | 28.38083 | 34056 ft | 464 kts | 320° |
| 2026-05-04 21:29 | 44.10819 | 28.32205 | 34057 ft | 465 kts | 320° |
| 2026-05-04 21:30 | 44.15718 | 28.26311 | 34056 ft | 466 kts | 320° |
| 2026-05-04 21:30 | 44.20626 | 28.20389 | 34050 ft | 467 kts | 320° |
| 2026-05-04 21:31 | 44.27961 | 28.11516 | 34046 ft | 467 kts | 320° |
| 2026-05-04 21:32 | 44.32871 | 28.05562 | 34052 ft | 467 kts | 320° |
| 2026-05-04 21:32 | 44.37773 | 27.99604 | 34048 ft | 467 kts | 320° |
| 2026-05-04 21:33 | 44.42668 | 27.93638 | 34054 ft | 467 kts | 320° |
| 2026-05-04 21:33 | 44.47525 | 27.87702 | 34056 ft | 466 kts | 320° |
| 2026-05-04 21:34 | 44.52406 | 27.81727 | 34056 ft | 466 kts | 320° |
| 2026-05-04 21:34 | 44.57291 | 27.75733 | 34057 ft | 467 kts | 320° |
| 2026-05-04 21:35 | 44.62177 | 27.69722 | 34057 ft | 467 kts | 320° |
| 2026-05-04 21:35 | 44.67016 | 27.63742 | 34056 ft | 467 kts | 319° |
| 2026-05-04 21:36 | 44.71834 | 27.57607 | 34055 ft | 468 kts | 318° |
| 2026-05-04 21:36 | 44.76637 | 27.51428 | 34057 ft | 468 kts | 318° |
| 2026-05-04 21:37 | 44.81447 | 27.45241 | 34057 ft | 468 kts | 318° |
| 2026-05-04 21:37 | 44.86233 | 27.39088 | 34054 ft | 469 kts | 318° |
| 2026-05-04 21:38 | 44.91045 | 27.32888 | 34055 ft | 469 kts | 318° |
| 2026-05-04 21:38 | 44.95863 | 27.26667 | 34056 ft | 469 kts | 318° |
| 2026-05-04 21:39 | 45.00679 | 27.20432 | 34055 ft | 470 kts | 318° |
| 2026-05-04 21:39 | 45.05460 | 27.14227 | 34055 ft | 470 kts | 318° |
| 2026-05-04 21:40 | 45.10270 | 27.07969 | 34056 ft | 470 kts | 318° |
| 2026-05-04 21:40 | 45.15075 | 27.01704 | 34046 ft | 470 kts | 318° |
| 2026-05-04 21:41 | 45.19882 | 26.95422 | 34047 ft | 470 kts | 318° |
| 2026-05-04 21:41 | 45.24684 | 26.89128 | 34048 ft | 470 kts | 317° |
| 2026-05-04 21:42 | 45.29451 | 26.82868 | 34055 ft | 470 kts | 318° |
| 2026-05-04 21:42 | 45.34244 | 26.76558 | 34058 ft | 470 kts | 317° |
| 2026-05-04 21:43 | 45.39028 | 26.70244 | 34063 ft | 470 kts | 317° |
| 2026-05-04 21:43 | 45.43815 | 26.63911 | 34065 ft | 470 kts | 318° |
| 2026-05-04 21:44 | 45.48570 | 26.57606 | 34065 ft | 470 kts | 317° |
| 2026-05-04 21:44 | 45.53065 | 26.50836 | 34073 ft | 470 kts | 312° |
| 2026-05-04 21:45 | 45.57383 | 26.43817 | 34067 ft | 471 kts | 312° |
| 2026-05-04 21:45 | 45.61701 | 26.36799 | 34065 ft | 471 kts | 312° |
| 2026-05-04 21:46 | 45.66003 | 26.29825 | 34064 ft | 471 kts | 312° |
| 2026-05-04 21:46 | 45.70339 | 26.22796 | 34066 ft | 471 kts | 312° |
| 2026-05-04 21:47 | 45.74673 | 26.15752 | 34071 ft | 471 kts | 312° |
| 2026-05-04 21:47 | 45.79004 | 26.08696 | 34075 ft | 472 kts | 312° |
| 2026-05-04 21:48 | 45.83297 | 26.01682 | 34073 ft | 471 kts | 312° |
| 2026-05-04 21:48 | 45.87618 | 25.94603 | 34073 ft | 471 kts | 312° |
| 2026-05-04 21:49 | 45.91934 | 25.87516 | 34077 ft | 471 kts | 312° |
| 2026-05-04 21:49 | 45.96246 | 25.80416 | 34073 ft | 471 kts | 312° |
| 2026-05-04 21:50 | 46.00551 | 25.73307 | 34071 ft | 471 kts | 312° |
| 2026-05-04 21:50 | 46.04820 | 25.66241 | 34074 ft | 471 kts | 312° |
| 2026-05-04 21:51 | 46.09110 | 25.59125 | 34075 ft | 471 kts | 312° |
| 2026-05-04 21:51 | 46.13401 | 25.51984 | 34073 ft | 471 kts | 312° |
| 2026-05-04 21:52 | 46.17690 | 25.44829 | 34075 ft | 472 kts | 312° |
| 2026-05-04 21:52 | 46.21949 | 25.37707 | 34073 ft | 472 kts | 312° |
| 2026-05-04 21:53 | 46.26230 | 25.30528 | 34074 ft | 471 kts | 312° |
| 2026-05-04 21:53 | 46.30502 | 25.23348 | 34074 ft | 471 kts | 311° |
| 2026-05-04 21:54 | 46.34770 | 25.16153 | 34088 ft | 471 kts | 311° |
| 2026-05-04 21:54 | 46.39008 | 25.08993 | 34078 ft | 471 kts | 311° |
| 2026-05-04 21:55 | 46.43269 | 25.01770 | 34088 ft | 471 kts | 311° |
| 2026-05-04 21:55 | 46.47525 | 24.94530 | 34083 ft | 472 kts | 311° |
| 2026-05-04 21:56 | 46.51651 | 24.87130 | 34077 ft | 472 kts | 309° |
| 2026-05-04 21:56 | 46.55715 | 24.79642 | 34074 ft | 472 kts | 309° |
| 2026-05-04 21:57 | 46.59757 | 24.72205 | 34076 ft | 472 kts | 309° |
| 2026-05-04 21:57 | 46.63833 | 24.64725 | 34071 ft | 472 kts | 309° |
| 2026-05-04 21:58 | 46.67907 | 24.57246 | 34072 ft | 471 kts | 309° |
| 2026-05-04 21:58 | 46.71967 | 24.49774 | 34085 ft | 471 kts | 309° |
| 2026-05-04 21:59 | 46.76000 | 24.42330 | 34082 ft | 471 kts | 309° |
| 2026-05-04 21:59 | 46.80056 | 24.34821 | 34086 ft | 471 kts | 309° |
| 2026-05-04 22:00 | 46.84107 | 24.27299 | 34098 ft | 471 kts | 309° |
| 2026-05-04 22:00 | 46.88155 | 24.19764 | 34098 ft | 472 kts | 309° |
| 2026-05-04 22:01 | 46.92175 | 24.12263 | 34103 ft | 472 kts | 309° |
| 2026-05-04 22:01 | 46.96218 | 24.04697 | 34095 ft | 472 kts | 309° |
| 2026-05-04 22:02 | 47.00252 | 23.97125 | 34097 ft | 472 kts | 309° |
| 2026-05-04 22:02 | 47.04285 | 23.89535 | 34087 ft | 472 kts | 309° |
| 2026-05-04 22:03 | 47.08311 | 23.81938 | 34099 ft | 471 kts | 309° |
| 2026-05-04 22:03 | 47.12300 | 23.74390 | 34100 ft | 471 kts | 309° |
| 2026-05-04 22:04 | 47.16310 | 23.66781 | 34100 ft | 471 kts | 309° |
| 2026-05-04 22:04 | 47.20314 | 23.59163 | 34088 ft | 471 kts | 309° |
| 2026-05-04 22:05 | 47.24311 | 23.51535 | 34088 ft | 471 kts | 308° |
| 2026-05-04 22:05 | 47.28274 | 23.43956 | 34086 ft | 471 kts | 308° |
| 2026-05-04 22:06 | 47.32262 | 23.36304 | 34081 ft | 471 kts | 308° |
| 2026-05-04 22:06 | 47.36243 | 23.28642 | 34083 ft | 470 kts | 308° |
| 2026-05-04 22:07 | 47.40221 | 23.20971 | 34085 ft | 470 kts | 308° |
| 2026-05-04 22:07 | 47.44160 | 23.13349 | 34082 ft | 470 kts | 308° |
| 2026-05-04 22:08 | 47.48124 | 23.05657 | 34074 ft | 470 kts | 308° |
| 2026-05-04 22:08 | 47.52083 | 22.97955 | 34074 ft | 470 kts | 308° |
| 2026-05-04 22:09 | 47.56037 | 22.90240 | 34074 ft | 470 kts | 308° |
| 2026-05-04 22:09 | 47.59958 | 22.82567 | 34072 ft | 470 kts | 308° |
| 2026-05-04 22:10 | 47.63893 | 22.74844 | 34073 ft | 470 kts | 308° |
| 2026-05-04 22:10 | 47.67825 | 22.67107 | 34075 ft | 469 kts | 308° |
| 2026-05-04 22:11 | 47.71751 | 22.59365 | 34073 ft | 469 kts | 308° |
| 2026-05-04 22:11 | 47.75640 | 22.51665 | 34074 ft | 469 kts | 308° |
| 2026-05-04 22:12 | 47.79515 | 22.43863 | 34076 ft | 469 kts | 305° |
| 2026-05-04 22:12 | 47.82789 | 22.35463 | 34081 ft | 470 kts | 300° |
| 2026-05-04 22:13 | 47.85944 | 22.26929 | 34074 ft | 471 kts | 300° |
| 2026-05-04 22:13 | 47.89109 | 22.18397 | 34078 ft | 470 kts | 300° |
| 2026-05-04 22:14 | 47.92265 | 22.09927 | 34072 ft | 470 kts | 300° |
| 2026-05-04 22:14 | 47.95446 | 22.01393 | 34074 ft | 471 kts | 300° |
| 2026-05-04 22:15 | 47.98623 | 21.92846 | 34073 ft | 471 kts | 300° |
| 2026-05-04 22:15 | 48.01788 | 21.84295 | 34074 ft | 471 kts | 300° |
| 2026-05-04 22:16 | 48.04949 | 21.75724 | 34076 ft | 471 kts | 300° |
| 2026-05-04 22:16 | 48.08083 | 21.67203 | 34073 ft | 471 kts | 300° |
| 2026-05-04 22:17 | 48.11230 | 21.58615 | 34074 ft | 471 kts | 300° |
| 2026-05-04 22:17 | 48.14366 | 21.50031 | 34073 ft | 470 kts | 300° |
| 2026-05-04 22:18 | 48.17497 | 21.41431 | 34074 ft | 470 kts | 300° |
| 2026-05-04 22:18 | 48.20598 | 21.32880 | 34067 ft | 470 kts | 300° |
| 2026-05-04 22:19 | 48.23716 | 21.24267 | 34065 ft | 470 kts | 299° |
| 2026-05-04 22:19 | 48.26826 | 21.15645 | 34063 ft | 470 kts | 299° |
| 2026-05-04 22:20 | 48.29923 | 21.07025 | 34064 ft | 469 kts | 299° |
| 2026-05-04 22:20 | 48.33016 | 20.98391 | 34057 ft | 469 kts | 299° |
| 2026-05-04 22:21 | 48.36080 | 20.89807 | 34056 ft | 469 kts | 299° |
| 2026-05-04 22:21 | 48.39157 | 20.81158 | 34057 ft | 469 kts | 299° |
| 2026-05-04 22:22 | 48.42227 | 20.72500 | 34056 ft | 469 kts | 298° |
| 2026-05-04 22:22 | 48.45291 | 20.63833 | 34056 ft | 469 kts | 298° |
| 2026-05-04 22:23 | 48.48343 | 20.55171 | 34060 ft | 468 kts | 298° |
| 2026-05-04 22:23 | 48.51371 | 20.46548 | 34064 ft | 468 kts | 298° |
| 2026-05-04 22:24 | 48.54412 | 20.37856 | 34065 ft | 468 kts | 298° |
| 2026-05-04 22:24 | 48.57448 | 20.29154 | 34065 ft | 468 kts | 298° |
| 2026-05-04 22:25 | 48.60516 | 20.20474 | 34067 ft | 468 kts | 299° |
| 2026-05-04 22:25 | 48.63622 | 20.11908 | 34064 ft | 468 kts | 299° |
| 2026-05-04 22:26 | 48.66749 | 20.03269 | 34064 ft | 468 kts | 299° |
| 2026-05-04 22:26 | 48.69860 | 19.94617 | 34068 ft | 468 kts | 298° |
| 2026-05-04 22:27 | 48.72957 | 19.85953 | 34064 ft | 468 kts | 298° |
| 2026-05-04 22:27 | 48.76024 | 19.77339 | 34067 ft | 467 kts | 298° |
| 2026-05-04 22:28 | 48.79103 | 19.68671 | 34064 ft | 467 kts | 298° |
| 2026-05-04 22:28 | 48.82174 | 19.59987 | 34063 ft | 467 kts | 298° |
| 2026-05-04 22:29 | 48.85237 | 19.51299 | 34065 ft | 467 kts | 298° |
| 2026-05-04 22:29 | 48.88292 | 19.42606 | 34066 ft | 466 kts | 298° |
| 2026-05-04 22:30 | 48.91320 | 19.33963 | 34064 ft | 466 kts | 298° |
| 2026-05-04 22:30 | 48.94358 | 19.25260 | 34056 ft | 466 kts | 298° |
| 2026-05-04 22:31 | 48.97393 | 19.16537 | 34046 ft | 466 kts | 298° |
| 2026-05-04 22:31 | 49.00418 | 19.07810 | 34046 ft | 466 kts | 298° |
| 2026-05-04 22:32 | 49.03414 | 18.99142 | 34047 ft | 465 kts | 298° |
| 2026-05-04 22:32 | 49.06423 | 18.90408 | 34045 ft | 465 kts | 297° |
| 2026-05-04 22:33 | 49.09419 | 18.81680 | 34032 ft | 465 kts | 297° |
| 2026-05-04 22:33 | 49.12408 | 18.72940 | 34052 ft | 464 kts | 297° |
| 2026-05-04 22:34 | 49.15391 | 18.64190 | 34048 ft | 464 kts | 297° |
| 2026-05-04 22:34 | 49.18346 | 18.55493 | 34047 ft | 464 kts | 297° |
| 2026-05-04 22:35 | 49.21312 | 18.46731 | 34046 ft | 464 kts | 297° |
| 2026-05-04 22:35 | 49.24269 | 18.37968 | 34048 ft | 463 kts | 297° |
| 2026-05-04 22:36 | 49.27213 | 18.29210 | 34035 ft | 463 kts | 297° |
| 2026-05-04 22:36 | 49.30155 | 18.20439 | 34026 ft | 463 kts | 297° |
| 2026-05-04 22:37 | 49.33102 | 18.11744 | 34026 ft | 463 kts | 300° |
| 2026-05-04 22:37 | 49.36558 | 18.03416 | 34023 ft | 463 kts | 303° |
| 2026-05-04 22:38 | 49.40159 | 17.95226 | 34009 ft | 463 kts | 303° |
| 2026-05-04 22:38 | 49.43695 | 17.86966 | 34008 ft | 464 kts | 303° |
| 2026-05-04 22:39 | 49.47160 | 17.78678 | 34004 ft | 464 kts | 302° |
| 2026-05-04 22:39 | 49.50635 | 17.70291 | 33995 ft | 465 kts | 302° |
| 2026-05-04 22:40 | 49.54110 | 17.61878 | 33990 ft | 466 kts | 302° |
| 2026-05-04 22:40 | 49.57583 | 17.53450 | 33981 ft | 466 kts | 302° |
| 2026-05-04 22:41 | 49.61024 | 17.45077 | 33981 ft | 466 kts | 302° |
| 2026-05-04 22:41 | 49.64484 | 17.36629 | 33980 ft | 466 kts | 302° |
| 2026-05-04 22:42 | 49.67937 | 17.28175 | 33972 ft | 466 kts | 302° |
| 2026-05-04 22:42 | 49.71386 | 17.19704 | 33970 ft | 466 kts | 302° |
| 2026-05-04 22:43 | 49.74825 | 17.11227 | 33971 ft | 465 kts | 302° |
| 2026-05-04 22:43 | 49.78234 | 17.02794 | 33970 ft | 465 kts | 302° |
| 2026-05-04 22:44 | 49.81662 | 16.94291 | 33964 ft | 465 kts | 301° |
| 2026-05-04 22:44 | 49.85084 | 16.85776 | 33961 ft | 465 kts | 301° |
| 2026-05-04 22:45 | 49.88497 | 16.77258 | 33958 ft | 466 kts | 301° |
| 2026-05-04 22:45 | 49.93588 | 16.64495 | 33954 ft | 466 kts | 301° |
| 2026-05-04 22:46 | 49.96990 | 16.55933 | 33935 ft | 466 kts | 301° |
| 2026-05-04 22:46 | 50.00384 | 16.47362 | 33951 ft | 466 kts | 301° |
| 2026-05-04 22:47 | 50.03772 | 16.38777 | 33947 ft | 465 kts | 301° |
| 2026-05-04 22:47 | 50.07131 | 16.30236 | 33928 ft | 465 kts | 301° |
| 2026-05-04 22:48 | 50.10497 | 16.21651 | 33949 ft | 465 kts | 300° |
| 2026-05-04 22:48 | 50.13863 | 16.13041 | 33931 ft | 465 kts | 300° |
| 2026-05-04 22:49 | 50.17223 | 16.04423 | 33954 ft | 465 kts | 300° |
| 2026-05-04 22:49 | 50.20560 | 15.95854 | 33954 ft | 465 kts | 300° |
| 2026-05-04 22:50 | 50.23912 | 15.87215 | 33954 ft | 465 kts | 300° |
| 2026-05-04 22:50 | 50.27250 | 15.78584 | 33909 ft | 460 kts | 300° |
| 2026-05-04 22:51 | 50.28879 | 15.74355 | 33792 ft | 451 kts | 300° |
| 2026-05-04 22:51 | 50.30489 | 15.70172 | 33557 ft | 446 kts | 300° |
| 2026-05-04 22:51 | 50.32081 | 15.66031 | 33184 ft | 444 kts | 300° |
| 2026-05-04 22:51 | 50.33650 | 15.61941 | 32749 ft | 444 kts | 300° |
| 2026-05-04 22:52 | 50.35233 | 15.57809 | 32341 ft | 443 kts | 300° |
| 2026-05-04 22:52 | 50.36811 | 15.53683 | 32004 ft | 440 kts | 300° |
| 2026-05-04 22:52 | 50.38378 | 15.49579 | 31670 ft | 437 kts | 300° |
| 2026-05-04 22:52 | 50.39935 | 15.45498 | 31341 ft | 435 kts | 300° |
| 2026-05-04 22:53 | 50.41483 | 15.41431 | 30989 ft | 433 kts | 300° |
| 2026-05-04 22:53 | 50.43021 | 15.37385 | 30635 ft | 431 kts | 300° |
| 2026-05-04 22:53 | 50.44551 | 15.33353 | 30301 ft | 429 kts | 300° |
| 2026-05-04 22:53 | 50.46073 | 15.29339 | 29962 ft | 427 kts | 300° |
| 2026-05-04 22:54 | 50.47566 | 15.25393 | 29639 ft | 425 kts | 300° |
| 2026-05-04 22:54 | 50.49070 | 15.21410 | 29315 ft | 423 kts | 300° |
| 2026-05-04 22:54 | 50.50566 | 15.17445 | 28991 ft | 421 kts | 300° |
| 2026-05-04 22:54 | 50.52050 | 15.13503 | 28661 ft | 419 kts | 299° |
| 2026-05-04 22:55 | 50.53531 | 15.09564 | 28324 ft | 418 kts | 299° |
| 2026-05-04 22:55 | 50.55003 | 15.05642 | 28014 ft | 415 kts | 299° |
| 2026-05-04 22:55 | 50.56468 | 15.01736 | 27694 ft | 414 kts | 299° |
| 2026-05-04 22:55 | 50.57926 | 14.97843 | 27384 ft | 412 kts | 299° |
| 2026-05-04 22:56 | 50.59377 | 14.93960 | 27069 ft | 410 kts | 299° |
| 2026-05-04 22:56 | 50.60820 | 14.90095 | 26761 ft | 409 kts | 299° |
| 2026-05-04 22:56 | 50.62234 | 14.86301 | 26459 ft | 407 kts | 299° |
| 2026-05-04 22:56 | 50.63663 | 14.82460 | 26158 ft | 406 kts | 299° |
| 2026-05-04 22:57 | 50.65086 | 14.78631 | 25857 ft | 404 kts | 299° |
| 2026-05-04 22:57 | 50.66503 | 14.74812 | 25563 ft | 403 kts | 299° |
| 2026-05-04 22:57 | 50.67913 | 14.71006 | 25292 ft | 401 kts | 299° |
| 2026-05-04 22:57 | 50.69315 | 14.67214 | 24989 ft | 399 kts | 299° |
| 2026-05-04 22:58 | 50.70711 | 14.63433 | 24711 ft | 398 kts | 299° |
| 2026-05-04 22:58 | 50.72083 | 14.59714 | 24438 ft | 397 kts | 299° |
| 2026-05-04 22:58 | 50.73468 | 14.55955 | 24154 ft | 396 kts | 299° |
| 2026-05-04 22:58 | 50.74845 | 14.52213 | 23873 ft | 394 kts | 299° |
| 2026-05-04 22:59 | 50.76218 | 14.48473 | 23607 ft | 393 kts | 299° |
| 2026-05-04 22:59 | 50.77585 | 14.44746 | 23349 ft | 391 kts | 298° |
| 2026-05-04 22:59 | 50.78945 | 14.41034 | 23097 ft | 390 kts | 298° |
| 2026-05-04 22:59 | 50.80298 | 14.37334 | 22842 ft | 388 kts | 298° |
| 2026-05-04 23:00 | 50.81645 | 14.33646 | 22587 ft | 387 kts | 298° |
| 2026-05-04 23:00 | 50.82968 | 14.30017 | 22332 ft | 385 kts | 298° |
| 2026-05-04 23:00 | 50.84303 | 14.26349 | 22075 ft | 384 kts | 298° |
| 2026-05-04 23:00 | 50.85631 | 14.22691 | 21824 ft | 383 kts | 298° |
| 2026-05-04 23:01 | 50.86952 | 14.19056 | 21590 ft | 381 kts | 298° |
| 2026-05-04 23:01 | 50.88272 | 14.15414 | 21362 ft | 380 kts | 298° |
| 2026-05-04 23:01 | 50.89580 | 14.11800 | 21127 ft | 378 kts | 298° |
| 2026-05-04 23:01 | 50.90884 | 14.08193 | 20844 ft | 376 kts | 298° |
| 2026-05-04 23:02 | 50.92178 | 14.04608 | 20429 ft | 373 kts | 298° |
| 2026-05-04 23:02 | 50.93443 | 14.01098 | 20021 ft | 370 kts | 298° |
| 2026-05-04 23:02 | 50.94712 | 13.97574 | 19614 ft | 366 kts | 298° |
| 2026-05-04 23:02 | 50.95968 | 13.94081 | 19200 ft | 363 kts | 298° |
| 2026-05-04 23:03 | 50.97211 | 13.90619 | 18782 ft | 359 kts | 298° |
| 2026-05-04 23:03 | 50.98442 | 13.87186 | 18372 ft | 356 kts | 298° |
| 2026-05-04 23:03 | 50.99660 | 13.83783 | 17962 ft | 353 kts | 298° |
| 2026-05-04 23:03 | 51.00864 | 13.80416 | 17555 ft | 350 kts | 298° |
| 2026-05-04 23:04 | 51.02058 | 13.77072 | 17163 ft | 346 kts | 298° |
| 2026-05-04 23:04 | 51.03240 | 13.73758 | 16757 ft | 343 kts | 298° |
| 2026-05-04 23:04 | 51.04394 | 13.70517 | 16373 ft | 340 kts | 298° |
| 2026-05-04 23:04 | 51.05551 | 13.67263 | 15970 ft | 337 kts | 298° |
| 2026-05-04 23:05 | 51.06697 | 13.64039 | 15581 ft | 333 kts | 298° |
| 2026-05-04 23:05 | 51.07830 | 13.60845 | 15184 ft | 330 kts | 298° |
| 2026-05-04 23:05 | 51.08951 | 13.57682 | 14811 ft | 326 kts | 298° |
| 2026-05-04 23:05 | 51.10059 | 13.54551 | 14433 ft | 323 kts | 298° |
| 2026-05-04 23:06 | 51.11155 | 13.51447 | 14053 ft | 321 kts | 298° |
| 2026-05-04 23:06 | 51.12248 | 13.48350 | 13696 ft | 322 kts | 298° |
| 2026-05-04 23:06 | 51.13340 | 13.45249 | 13332 ft | 329 kts | 298° |
| 2026-05-04 23:06 | 51.14470 | 13.42041 | 12955 ft | 334 kts | 298° |
| 2026-05-04 23:07 | 51.15607 | 13.38811 | 12558 ft | 334 kts | 298° |
| 2026-05-04 23:07 | 51.16733 | 13.35607 | 12179 ft | 329 kts | 297° |
| 2026-05-04 23:07 | 51.17838 | 13.32443 | 11796 ft | 324 kts | 297° |
| 2026-05-04 23:07 | 51.18901 | 13.29299 | 11425 ft | 320 kts | 296° |
| 2026-05-04 23:08 | 51.19940 | 13.26188 | 11047 ft | 316 kts | 296° |
| 2026-05-04 23:08 | 51.20962 | 13.23114 | 10677 ft | 312 kts | 296° |
| 2026-05-04 23:08 | 51.21970 | 13.20081 | 10369 ft | 306 kts | 296° |
| 2026-05-04 23:08 | 51.22934 | 13.17184 | 10238 ft | 294 kts | 296° |
| 2026-05-04 23:09 | 51.23873 | 13.14363 | 10106 ft | 283 kts | 296° |
| 2026-05-04 23:09 | 51.24777 | 13.11647 | 9977 ft | 272 kts | 296° |
| 2026-05-04 23:09 | 51.25661 | 13.08986 | 9697 ft | 272 kts | 296° |
| 2026-05-04 23:09 | 51.26556 | 13.06285 | 9411 ft | 279 kts | 296° |
| 2026-05-04 23:10 | 51.27477 | 13.03502 | 9089 ft | 287 kts | 297° |
| 2026-05-04 23:10 | 51.28414 | 13.00676 | 8761 ft | 288 kts | 297° |
| 2026-05-04 23:10 | 51.29345 | 12.97864 | 8417 ft | 284 kts | 297° |
| 2026-05-04 23:10 | 51.30262 | 12.95090 | 8086 ft | 280 kts | 297° |
| 2026-05-04 23:11 | 51.31153 | 12.92392 | 7764 ft | 276 kts | 297° |
| 2026-05-04 23:11 | 51.32040 | 12.89707 | 7450 ft | 272 kts | 297° |
| 2026-05-04 23:11 | 51.32913 | 12.87057 | 7130 ft | 267 kts | 297° |
| 2026-05-04 23:11 | 51.33774 | 12.84443 | 6836 ft | 265 kts | 297° |
| 2026-05-04 23:12 | 51.34638 | 12.81817 | 6542 ft | 269 kts | 297° |
| 2026-05-04 23:12 | 51.35518 | 12.79136 | 6236 ft | 275 kts | 297° |
| 2026-05-04 23:12 | 51.36412 | 12.76412 | 5918 ft | 278 kts | 297° |
| 2026-05-04 23:12 | 51.37297 | 12.73712 | 5595 ft | 276 kts | 297° |
| 2026-05-04 23:13 | 51.38181 | 12.71013 | 5281 ft | 272 kts | 297° |
| 2026-05-04 23:13 | 51.39055 | 12.68348 | 4959 ft | 268 kts | 297° |
| 2026-05-04 23:13 | 51.39905 | 12.65743 | 4825 ft | 258 kts | 297° |
| 2026-05-04 23:13 | 51.40716 | 12.63257 | 4675 ft | 246 kts | 297° |
| 2026-05-04 23:14 | 51.41486 | 12.60897 | 4563 ft | 232 kts | 297° |
| 2026-05-04 23:14 | 51.42209 | 12.58676 | 4424 ft | 220 kts | 296° |
| 2026-05-04 23:14 | 51.42609 | 12.56415 | 4163 ft | 206 kts | 272° |
| 2026-05-04 23:14 | 51.42642 | 12.54177 | 3940 ft | 197 kts | 270° |
| 2026-05-04 23:15 | 51.42610 | 12.52063 | 3687 ft | 189 kts | 267° |
| 2026-05-04 23:15 | 51.42531 | 12.49990 | 3430 ft | 184 kts | 266° |
| 2026-05-04 23:15 | 51.42440 | 12.47986 | 3183 ft | 177 kts | 266° |
| 2026-05-04 23:15 | 51.42350 | 12.46039 | 2957 ft | 175 kts | 266° |
| 2026-05-04 23:16 | 51.42256 | 12.44058 | 2746 ft | 181 kts | 266° |
| 2026-05-04 23:16 | 51.42157 | 12.42053 | 2506 ft | 177 kts | 265° |
| 2026-05-04 23:16 | 51.42064 | 12.40124 | 2267 ft | 174 kts | 266° |
| 2026-05-04 23:16 | 51.41983 | 12.38213 | 2043 ft | 168 kts | 265° |
| 2026-05-04 23:17 | 51.41894 | 12.36362 | 1807 ft | 166 kts | 265° |
| 2026-05-04 23:17 | 51.41810 | 12.34582 | 1612 ft | 160 kts | 267° |
| 2026-05-04 23:17 | 51.41732 | 12.32797 | 1418 ft | 161 kts | 266° |
| 2026-05-04 23:17 | 51.41647 | 12.30995 | 1187 ft | 163 kts | 266° |
| 2026-05-04 23:18 | 51.41561 | 12.29197 | 956 ft | 160 kts | 266° |
| 2026-05-04 23:18 | 51.41484 | 12.27421 | 745 ft | 159 kts | 266° |
| 2026-05-04 23:18 | 51.41405 | 12.25649 | 562 ft | 159 kts | 266° |
| 2026-05-04 23:18 | 51.41324 | 12.23956 | 470 ft | 141 kts | 265° |
| 2026-05-04 23:19 | 51.41262 | 12.22646 | 464 ft | 95 kts | 266° |
| 2026-05-04 23:19 | 51.41230 | 12.22030 | 460 ft | 25 kts | 260° |
| 2026-05-04 23:19 | 51.41170 | 12.21775 | 459 ft | 23 kts | 241° |
| 2026-05-04 23:19 | 51.41102 | 12.21604 | 460 ft | 14 kts | 236° |
| 2026-05-04 23:20 | 51.41052 | 12.21489 | 458 ft | 11 kts | 227° |
| 2026-05-04 23:20 | 51.40984 | 12.21455 | 457 ft | 4 kts | 166° |
| 2026-05-04 23:20 | 51.40978 | 12.21478 | 458 ft | 4 kts | 88° |
| 2026-05-04 23:20 | 51.41026 | 12.21528 | 457 ft | 9 kts | 49° |
| 2026-05-04 23:21 | 51.41044 | 12.21627 | 461 ft | 9 kts | 81° |
| 2026-05-04 23:21 | 51.41049 | 12.21730 | 463 ft | 9 kts | 86° |
| 2026-05-04 23:21 | 51.41054 | 12.21838 | 462 ft | 11 kts | 86° |
| 2026-05-04 23:21 | 51.41059 | 12.21971 | 461 ft | 13 kts | 86° |
| 2026-05-04 23:22 | 51.41066 | 12.22117 | 461 ft | 13 kts | 86° |
| 2026-05-04 23:22 | 51.41069 | 12.22243 | 461 ft | 7 kts | 97° |
| 2026-05-04 23:22 | 51.41040 | 12.22304 | 462 ft | 7 kts | 150° |
| 2026-05-04 23:22 | 51.41002 | 12.22353 | 462 ft | 7 kts | 118° |
| 2026-05-04 23:23 | 51.40994 | 12.22441 | 462 ft | 9 kts | 90° |
| 2026-05-04 23:23 | 51.41000 | 12.22571 | 464 ft | 15 kts | 85° |
| 2026-05-04 23:23 | 51.41008 | 12.22741 | 467 ft | 15 kts | 85° |
| 2026-05-04 23:23 | 51.41016 | 12.22909 | 468 ft | 15 kts | 85° |
| 2026-05-04 23:24 | 51.41024 | 12.23080 | 471 ft | 15 kts | 86° |
| 2026-05-04 23:24 | 51.41031 | 12.23250 | 475 ft | 15 kts | 86° |
| 2026-05-04 23:24 | 51.41039 | 12.23423 | 474 ft | 16 kts | 86° |
| 2026-05-04 23:24 | 51.41048 | 12.23603 | 475 ft | 16 kts | 85° |
| 2026-05-04 23:25 | 51.41057 | 12.23784 | 472 ft | 17 kts | 85° |
| 2026-05-04 23:25 | 51.41066 | 12.23991 | 470 ft | 20 kts | 86° |
| 2026-05-04 23:25 | 51.41076 | 12.24210 | 468 ft | 19 kts | 86° |
| 2026-05-04 23:25 | 51.41085 | 12.24408 | 470 ft | 17 kts | 85° |
| 2026-05-04 23:26 | 51.41092 | 12.24541 | 466 ft | 11 kts | 85° |
| 2026-05-04 23:26 | 51.41082 | 12.24625 | 470 ft | 7 kts | 131° |
| 2026-05-04 23:26 | 51.41036 | 12.24651 | 473 ft | 7 kts | 171° |
| 2026-05-04 23:26 | 51.40974 | 12.24658 | 472 ft | 11 kts | 176° |
| 2026-05-04 23:27 | 51.40903 | 12.24665 | 470 ft | 8 kts | 176° |
| 2026-05-04 23:27 | 51.40878 | 12.24699 | 469 ft | 5 kts | 108° |
| 2026-05-04 23:27 | 51.40878 | 12.24754 | 470 ft | 5 kts | 86° |
| 2026-05-04 23:27 | 51.40880 | 12.24809 | 470 ft | 4 kts | 85° |
| 2026-05-04 23:28 | 51.40882 | 12.24834 | 465 ft | 0 kts | 85° |